createdAt,value
2023-02-13T00:00:54.506Z,103018.73
2023-02-13T00:01:59.133Z,103023.48
2023-02-13T00:03:00.686Z,103025.23
2023-02-13T00:04:02.329Z,103021.40
2023-02-13T00:05:04.059Z,103025.44
2023-02-13T00:06:05.736Z,103023.00
2023-02-13T00:07:07.308Z,103021.63
2023-02-13T00:08:08.870Z,103023.23
2023-02-13T00:09:10.878Z,103022.86
2023-02-13T00:10:12.764Z,103016.88
2023-02-13T00:11:14.973Z,103018.16
2023-02-13T00:12:16.517Z,103019.35
2023-02-13T00:13:17.917Z,103018.29
2023-02-13T00:14:19.371Z,103021.39
2023-02-13T00:15:20.973Z,103021.44
2023-02-13T00:16:22.499Z,103022.52
2023-02-13T00:17:24.852Z,103022.22
2023-02-13T00:18:28.200Z,103020.82
2023-02-13T00:19:29.729Z,103025.39
2023-02-13T00:20:31.302Z,103024.27
2023-02-13T00:21:32.954Z,103024.79
2023-02-13T00:22:37.767Z,103027.55
2023-02-13T00:23:40.154Z,103025.11
2023-02-13T00:24:42.435Z,103025.65
2023-02-13T00:26:41.149Z,103023.65
2023-02-13T00:27:43.260Z,103023.05
2023-02-13T00:28:45.344Z,103026.77
2023-02-13T00:29:46.878Z,103024.80
2023-02-13T00:30:48.469Z,103027.09
2023-02-13T00:31:50.294Z,103023.56
2023-02-13T00:32:52.001Z,103025.55
2023-02-13T00:33:53.455Z,103021.96
2023-02-13T00:34:55.850Z,103024.88
2023-02-13T00:36:10.146Z,103031.30
2023-02-13T00:37:12.193Z,103028.62
2023-02-13T00:38:13.828Z,103034.39
2023-02-13T00:39:15.299Z,103030.77
2023-02-13T00:40:16.817Z,103027.27
2023-02-13T00:41:18.255Z,103032.56
2023-02-13T00:42:23.434Z,103030.25
2023-02-13T00:43:25.618Z,103028.54
2023-02-13T00:44:27.100Z,103028.13
2023-02-13T00:45:29.100Z,103032.25
2023-02-13T00:46:30.929Z,103032.70
2023-02-13T00:47:32.718Z,103035.11
2023-02-13T00:48:34.808Z,103033.06
2023-02-13T00:49:36.248Z,103034.04
2023-02-13T00:50:37.791Z,103035.38
2023-02-13T00:51:39.307Z,103034.55
2023-02-13T00:52:41.075Z,103033.02
2023-02-13T00:53:42.741Z,103032.42
2023-02-13T00:54:44.298Z,103035.11
2023-02-13T00:55:48.467Z,103035.48
2023-02-13T00:56:49.914Z,103035.52
2023-02-13T00:57:51.525Z,103033.44
2023-02-13T00:58:53.195Z,103031.73
2023-02-13T00:59:54.676Z,103033.35
2023-02-13T01:00:56.607Z,103032.01
2023-02-13T01:01:59.208Z,103036.52
2023-02-13T01:03:01.139Z,103039.09
2023-02-13T01:04:03.052Z,103035.65
2023-02-13T01:05:04.806Z,103033.05
2023-02-13T01:06:07.107Z,103030.86
2023-02-13T01:07:08.576Z,103032.48
2023-02-13T01:08:12.167Z,103030.98
2023-02-13T01:09:13.912Z,103026.64
2023-02-13T01:10:15.844Z,103026.85
2023-02-13T01:11:18.609Z,103025.37
2023-02-13T01:12:20.021Z,103022.63
2023-02-13T01:13:21.683Z,103021.15
2023-02-13T01:14:23.288Z,103024.98
2023-02-13T01:15:25.135Z,103024.30
2023-02-13T01:16:27.109Z,103027.06
2023-02-13T01:17:28.770Z,103027.45
2023-02-13T01:18:31.574Z,103027.87
2023-02-13T01:19:33.590Z,103032.50
2023-02-13T01:20:35.223Z,103028.23
2023-02-13T01:21:36.867Z,103023.46
2023-02-13T01:22:38.805Z,103022.94
2023-02-13T01:23:40.712Z,103018.11
2023-02-13T01:24:42.314Z,103019.17
2023-02-13T01:25:43.971Z,103015.81
2023-02-13T01:26:45.504Z,103017.30
2023-02-13T01:27:47.521Z,103011.80
2023-02-13T01:28:54.434Z,103011.52
2023-02-13T01:29:56.213Z,103009.41
2023-02-13T01:30:58.925Z,103013.95
2023-02-13T01:32:03.922Z,103009.27
2023-02-13T01:33:05.616Z,103010.98
2023-02-13T01:34:08.036Z,103014.03
2023-02-13T01:35:10.480Z,103004.16
2023-02-13T01:36:13.519Z,103006.30
2023-02-13T01:37:15.266Z,103010.30
2023-02-13T01:38:17.407Z,103005.85
2023-02-13T01:39:19.169Z,103006.23
2023-02-13T01:40:20.822Z,103009.23
2023-02-13T01:41:24.292Z,103009.77
2023-02-13T01:42:28.852Z,103006.92
2023-02-13T01:44:03.140Z,103002.16
2023-02-13T01:45:19.745Z,103005.38
2023-02-13T01:46:38.254Z,103007.66
2023-02-13T01:47:46.894Z,103007.17
2023-02-13T01:48:50.791Z,103006.58
2023-02-13T01:50:04.908Z,102999.73
2023-02-13T01:51:17.728Z,102996.60
2023-02-13T01:52:21.129Z,102995.13
2023-02-13T01:53:29.651Z,102997.17
2023-02-13T01:54:33.870Z,102995.25
2023-02-13T01:55:47.378Z,102992.77
2023-02-13T01:56:57.588Z,102992.20
2023-02-13T01:58:09.053Z,102992.58
2023-02-13T01:59:15.203Z,102992.39
2023-02-13T02:00:17.269Z,102986.40
2023-02-13T02:01:23.894Z,102982.31
2023-02-13T02:02:27.638Z,102981.59
2023-02-13T02:03:37.655Z,102976.51
2023-02-13T02:04:43.833Z,102977.92
2023-02-13T02:05:52.599Z,102976.19
2023-02-13T02:07:02.886Z,102980.29
2023-02-13T02:08:10.364Z,102979.55
2023-02-13T02:09:20.286Z,102982.77
2023-02-13T02:10:22.801Z,102984.58
2023-02-13T02:11:48.161Z,102980.84
2023-02-13T02:13:18.068Z,102986.70
2023-02-13T02:14:20.341Z,102989.85
2023-02-13T02:15:22.091Z,102990.96
2023-02-13T02:16:25.167Z,102991.66
2023-02-13T02:17:27.150Z,102991.81
2023-02-13T02:18:29.289Z,102995.58
2023-02-13T02:19:36.747Z,102991.91
2023-02-13T02:21:09.441Z,102993.68
2023-02-13T02:23:09.659Z,102988.55
2023-02-13T02:24:36.261Z,102993.83
2023-02-13T02:26:03.711Z,102997.83
2023-02-13T02:27:38.030Z,102998.05
2023-02-13T02:29:09.190Z,102994.91
2023-02-13T02:32:09.222Z,102989.17
2023-02-13T02:33:16.890Z,102990.45
2023-02-13T02:34:25.478Z,102986.20
2023-02-13T02:35:59.439Z,102989.39
2023-02-13T02:37:04.634Z,102992.14
2023-02-13T02:38:39.832Z,102990.73
2023-02-13T02:39:55.473Z,102992.48
2023-02-13T02:41:38.053Z,102989.09
2023-02-13T02:42:56.364Z,102994.33
2023-02-13T02:44:35.349Z,102989.50
2023-02-13T02:45:46.546Z,102989.04
2023-02-13T02:47:33.515Z,102987.24
2023-02-13T02:49:07.090Z,102984.15
2023-02-13T02:50:14.264Z,102984.48
2023-02-13T02:51:40.136Z,102983.27
2023-02-13T02:52:47.628Z,102981.86
2023-02-13T02:54:25.753Z,102975.95
2023-02-13T02:55:59.604Z,102976.45
2023-02-13T02:57:08.667Z,102975.89
2023-02-13T02:58:38.302Z,102977.27
2023-02-13T03:00:00.498Z,102981.89
2023-02-13T03:01:25.228Z,102977.42
2023-02-13T03:02:47.711Z,102978.20
2023-02-13T03:04:08.739Z,102980.76
2023-02-13T03:05:49.240Z,102977.14
2023-02-13T03:06:58.984Z,102973.94
2023-02-13T03:08:02.659Z,102973.71
2023-02-13T03:09:29.128Z,102972.88
2023-02-13T03:10:52.852Z,102973.43
2023-02-13T03:12:14.427Z,102971.05
2023-02-13T03:13:47.433Z,102970.71
2023-02-13T03:14:49.000Z,102972.77
2023-02-13T03:16:17.117Z,102969.54
2023-02-13T03:17:37.944Z,102972.77
2023-02-13T03:19:03.273Z,102972.14
2023-02-13T03:20:41.498Z,102976.70
2023-02-13T03:22:20.148Z,102973.62
2023-02-13T03:23:54.729Z,102970.78
2023-02-13T03:25:29.526Z,102968.33
2023-02-13T03:26:52.368Z,102968.73
2023-02-13T03:28:19.666Z,102971.07
2023-02-13T03:29:48.174Z,102968.04
2023-02-13T03:31:27.675Z,102968.19
2023-02-13T03:32:38.955Z,102967.77
2023-02-13T03:34:00.106Z,102969.02
2023-02-13T03:35:57.856Z,102967.94
2023-02-13T03:37:25.851Z,102964.77
2023-02-13T03:38:41.799Z,102965.92
2023-02-13T03:39:52.594Z,102966.61
2023-02-13T03:41:19.219Z,102967.40
2023-02-13T03:42:46.564Z,102965.83
2023-02-13T03:44:11.714Z,102968.42
2023-02-13T03:45:56.486Z,102969.34
2023-02-13T03:47:02.286Z,102969.37
2023-02-13T03:48:09.234Z,102965.61
2023-02-13T03:49:40.746Z,102963.06
2023-02-13T03:50:44.418Z,102961.70
2023-02-13T03:51:55.631Z,102963.27
2023-02-13T03:53:05.716Z,102957.41
2023-02-13T03:54:15.827Z,102955.98
2023-02-13T03:55:50.489Z,102960.87
2023-02-13T03:57:12.201Z,102960.14
2023-02-13T03:58:40.970Z,102958.02
2023-02-13T03:59:42.634Z,102965.23
2023-02-13T04:00:49.892Z,102964.34
2023-02-13T04:02:10.642Z,102966.92
2023-02-13T04:03:19.579Z,102972.96
2023-02-13T04:04:24.754Z,102973.41
2023-02-13T04:05:31.603Z,102973.77
2023-02-13T04:07:11.656Z,102973.16
2023-02-13T04:08:13.261Z,102977.80
2023-02-13T04:09:16.437Z,102974.57
2023-02-13T04:10:19.298Z,102979.08
2023-02-13T04:11:24.541Z,102976.50
2023-02-13T04:12:37.547Z,102977.64
2023-02-13T04:13:47.534Z,102976.16
2023-02-13T04:15:06.850Z,102973.23
2023-02-13T04:16:17.232Z,102969.98
2023-02-13T04:17:32.771Z,102972.93
2023-02-13T04:18:34.617Z,102971.00
2023-02-13T04:19:36.721Z,102972.34
2023-02-13T04:20:39.193Z,102968.67
2023-02-13T04:21:40.704Z,102971.07
2023-02-13T04:22:47.414Z,102972.77
2023-02-13T04:23:48.895Z,102974.74
2023-02-13T04:24:50.479Z,102976.77
2023-02-13T04:25:55.225Z,102979.87
2023-02-13T04:26:57.366Z,102976.67
2023-02-13T04:27:59.047Z,102973.78
2023-02-13T04:29:00.776Z,102974.71
2023-02-13T04:30:02.441Z,102974.23
2023-02-13T04:31:04.161Z,102976.95
2023-02-13T04:32:05.781Z,102971.33
2023-02-13T04:33:07.563Z,102975.29
2023-02-13T04:34:09.195Z,102975.28
2023-02-13T04:35:12.286Z,102975.11
2023-02-13T04:36:14.016Z,102972.10
2023-02-13T04:37:15.568Z,102975.91
2023-02-13T04:38:17.337Z,102975.59
2023-02-13T04:39:18.922Z,102969.27
2023-02-13T04:40:20.471Z,102971.30
2023-02-13T04:41:22.020Z,102972.92
2023-02-13T04:42:23.534Z,102971.55
2023-02-13T04:43:25.227Z,102972.25
2023-02-13T04:44:26.707Z,102972.54
2023-02-13T04:45:28.270Z,102968.40
2023-02-13T04:46:29.901Z,102972.23
2023-02-13T04:47:32.529Z,102972.43
2023-02-13T04:48:34.226Z,102972.91
2023-02-13T04:49:36.028Z,102974.09
2023-02-13T04:50:37.452Z,102976.29
2023-02-13T04:51:39.147Z,102980.06
2023-02-13T04:52:40.658Z,102979.66
2023-02-13T04:53:42.289Z,102979.36
2023-02-13T04:54:43.943Z,102983.29
2023-02-13T04:55:45.746Z,102983.34
2023-02-13T04:56:47.444Z,102983.88
2023-02-13T04:57:55.959Z,102981.88
2023-02-13T04:58:58.117Z,102980.23
2023-02-13T04:59:59.680Z,102983.09
2023-02-13T05:01:01.335Z,102983.52
2023-02-13T05:02:02.974Z,102986.13
2023-02-13T05:03:10.033Z,102985.09
2023-02-13T05:04:15.583Z,102987.40
2023-02-13T05:05:17.566Z,102988.17
2023-02-13T05:06:19.142Z,102982.13
2023-02-13T05:07:20.597Z,102985.73
2023-02-13T05:08:22.096Z,102983.34
2023-02-13T05:09:24.045Z,102983.75
2023-02-13T05:10:26.233Z,102983.08
2023-02-13T05:11:27.920Z,102982.63
2023-02-13T05:12:29.453Z,102981.70
2023-02-13T05:13:31.532Z,102974.70
2023-02-13T05:14:33.584Z,102976.14
2023-02-13T05:15:35.446Z,102978.95
2023-02-13T05:16:37.185Z,102980.70
2023-02-13T05:17:38.726Z,102982.86
2023-02-13T05:18:40.271Z,102985.04
2023-02-13T05:19:42.084Z,102985.67
2023-02-13T05:20:43.919Z,102989.40
2023-02-13T05:22:04.159Z,102992.60
2023-02-13T05:23:22.459Z,102994.08
2023-02-13T05:24:24.249Z,102995.17
2023-02-13T05:25:25.886Z,102996.89
2023-02-13T05:26:27.352Z,102998.20
2023-02-13T05:27:29.089Z,102999.41
2023-02-13T05:28:49.155Z,103000.38
2023-02-13T05:29:50.610Z,103000.16
2023-02-13T05:30:52.942Z,102996.25
2023-02-13T05:31:56.884Z,102990.53
2023-02-13T05:32:58.401Z,102990.89
2023-02-13T05:34:00.550Z,102992.98
2023-02-13T05:35:04.409Z,102985.81
2023-02-13T05:36:06.836Z,102986.82
2023-02-13T05:37:08.298Z,102990.05
2023-02-13T05:38:09.773Z,102993.94
2023-02-13T05:39:11.342Z,102993.41
2023-02-13T05:40:14.475Z,102991.40
2023-02-13T05:41:16.667Z,102989.91
2023-02-13T05:42:18.086Z,102990.55
2023-02-13T05:43:19.871Z,102991.15
2023-02-13T05:44:21.286Z,102997.82
2023-02-13T05:45:22.774Z,102994.02
2023-02-13T05:46:24.454Z,102994.05
2023-02-13T05:47:25.961Z,102992.45
2023-02-13T05:48:27.438Z,102993.50
2023-02-13T05:49:28.888Z,102994.17
2023-02-13T05:50:30.493Z,102995.59
2023-02-13T05:51:32.330Z,102993.36
2023-02-13T05:52:33.881Z,102987.20
2023-02-13T05:53:35.712Z,102986.52
2023-02-13T05:54:38.856Z,102989.92
2023-02-13T05:55:40.367Z,102990.27
2023-02-13T05:56:42.310Z,102986.78
2023-02-13T05:57:43.822Z,102988.69
2023-02-13T05:58:45.200Z,102989.77
2023-02-13T05:59:47.516Z,102989.25
2023-02-13T06:00:49.244Z,102989.75
2023-02-13T06:01:51.140Z,102986.83
2023-02-13T06:02:52.800Z,102993.52
2023-02-13T06:03:56.727Z,102992.05
2023-02-13T06:05:00.353Z,102998.20
2023-02-13T06:06:02.036Z,103002.05
2023-02-13T06:07:04.473Z,103001.45
2023-02-13T06:08:05.998Z,103001.39
2023-02-13T06:09:07.707Z,103002.55
2023-02-13T06:10:09.962Z,103008.87
2023-02-13T06:11:11.750Z,103007.62
2023-02-13T06:12:13.514Z,103011.45
2023-02-13T06:13:15.523Z,103004.48
2023-02-13T06:14:17.115Z,103007.16
2023-02-13T06:15:18.607Z,103000.20
2023-02-13T06:16:20.372Z,103002.45
2023-02-13T06:17:22.223Z,103005.96
2023-02-13T06:18:23.921Z,103004.48
2023-02-13T06:19:25.673Z,103002.49
2023-02-13T06:20:27.468Z,103000.55
2023-02-13T06:21:28.973Z,103007.94
2023-02-13T06:22:30.856Z,103009.48
2023-02-13T06:23:32.586Z,103004.14
2023-02-13T06:24:34.170Z,103004.77
2023-02-13T06:25:36.424Z,103001.86
2023-02-13T06:26:37.907Z,103005.23
2023-02-13T06:27:39.602Z,103005.27
2023-02-13T06:28:41.143Z,103006.59
2023-02-13T06:29:42.739Z,103012.14
2023-02-13T06:30:44.284Z,103008.83
2023-02-13T06:31:45.870Z,103003.64
2023-02-13T06:32:48.323Z,103005.55
2023-02-13T06:33:49.910Z,103005.54
2023-02-13T06:34:51.417Z,103007.14
2023-02-13T06:35:53.149Z,103012.09
2023-02-13T06:36:54.770Z,103015.66
2023-02-13T06:37:56.483Z,103013.13
2023-02-13T06:38:57.987Z,103010.95
2023-02-13T06:39:59.767Z,103012.63
2023-02-13T06:41:01.928Z,103011.05
2023-02-13T06:42:03.705Z,103009.35
2023-02-13T06:43:05.674Z,103011.65
2023-02-13T06:44:07.288Z,103009.89
2023-02-13T06:45:09.817Z,103008.62
2023-02-13T06:46:11.380Z,103004.86
2023-02-13T06:47:12.863Z,103006.71
2023-02-13T06:48:14.538Z,103005.73
2023-02-13T06:49:16.041Z,103004.57
2023-02-13T06:50:18.033Z,103006.90
2023-02-13T06:51:19.538Z,103007.09
2023-02-13T06:52:21.214Z,103004.88
2023-02-13T06:53:25.067Z,103006.40
2023-02-13T06:54:40.979Z,103006.13
2023-02-13T06:55:46.536Z,103014.02
2023-02-13T06:56:48.012Z,103007.61
2023-02-13T06:57:49.511Z,103006.34
2023-02-13T06:58:51.346Z,103004.92
2023-02-13T06:59:52.883Z,103005.23
2023-02-13T07:00:54.520Z,103002.02
2023-02-13T07:01:56.117Z,103002.56
2023-02-13T07:03:05.654Z,103000.58
2023-02-13T07:04:07.599Z,102997.88
2023-02-13T07:05:09.466Z,103002.00
2023-02-13T07:06:16.877Z,103005.27
2023-02-13T07:07:18.326Z,103003.41
2023-02-13T07:08:19.867Z,103007.54
2023-02-13T07:09:22.676Z,103008.12
2023-02-13T07:10:24.246Z,103013.73
2023-02-13T07:11:25.815Z,103008.21
2023-02-13T07:12:27.649Z,103005.63
2023-02-13T07:13:29.156Z,103006.86
2023-02-13T07:14:30.954Z,103003.60
2023-02-13T07:15:34.668Z,103002.85
2023-02-13T07:16:36.190Z,102995.96
2023-02-13T07:17:37.783Z,102999.66
2023-02-13T07:18:39.723Z,103001.61
2023-02-13T07:19:41.504Z,103000.19
2023-02-13T07:20:43.053Z,103000.48
2023-02-13T07:21:44.514Z,103001.70
2023-02-13T07:22:45.953Z,102997.03
2023-02-13T07:23:47.371Z,102995.53
2023-02-13T07:24:49.198Z,102995.41
2023-02-13T07:25:50.657Z,102995.41
2023-02-13T07:26:52.099Z,102997.23
2023-02-13T07:27:53.827Z,102995.41
2023-02-13T07:29:10.249Z,102994.73
2023-02-13T07:30:13.641Z,102995.27
2023-02-13T07:31:15.313Z,102994.56
2023-02-13T07:32:16.898Z,102992.27
2023-02-13T07:33:18.687Z,102990.98
2023-02-13T07:34:20.153Z,102988.70
2023-02-13T07:35:21.792Z,102993.09
2023-02-13T07:36:23.322Z,102990.20
2023-02-13T07:37:27.664Z,102987.46
2023-02-13T07:38:30.430Z,102985.02
2023-02-13T07:39:32.232Z,102984.09
2023-02-13T07:40:34.489Z,102983.79
2023-02-13T07:41:35.951Z,102984.11
2023-02-13T07:42:37.387Z,102982.52
2023-02-13T07:43:38.918Z,102990.62
2023-02-13T07:44:40.440Z,102983.70
2023-02-13T07:45:42.344Z,102989.06
2023-02-13T07:46:43.879Z,102985.81
2023-02-13T07:47:45.421Z,102982.05
2023-02-13T07:48:46.973Z,102976.64
2023-02-13T07:49:48.494Z,102975.85
2023-02-13T07:50:50.370Z,102981.09
2023-02-13T07:51:52.033Z,102980.23
2023-02-13T07:53:00.445Z,102981.09
2023-02-13T07:54:02.280Z,102991.30
2023-02-13T07:55:05.502Z,102985.67
2023-02-13T07:56:08.833Z,102984.08
2023-02-13T07:57:10.593Z,102985.59
2023-02-13T07:58:12.088Z,102980.17
2023-02-13T07:59:13.664Z,102980.44
2023-02-13T08:00:15.876Z,102977.95
2023-02-13T08:01:19.310Z,102978.39
2023-02-13T08:02:20.913Z,102974.34
2023-02-13T08:03:22.416Z,102977.78
2023-02-13T08:04:26.123Z,102977.52
2023-02-13T08:05:30.732Z,102978.02
2023-02-13T08:06:32.437Z,102973.44
2023-02-13T08:07:34.331Z,102978.27
2023-02-13T08:08:37.162Z,102979.59
2023-02-13T08:09:57.466Z,102982.32
2023-02-13T08:11:35.813Z,102979.66
2023-02-13T08:12:37.618Z,102976.87
2023-02-13T08:13:39.940Z,102977.63
2023-02-13T08:14:41.367Z,102972.39
2023-02-13T08:15:46.467Z,102972.34
2023-02-13T08:16:48.449Z,102963.56
2023-02-13T08:17:50.712Z,102963.66
2023-02-13T08:18:52.360Z,102962.02
2023-02-13T08:19:54.478Z,102966.04
2023-02-13T08:20:56.002Z,102966.13
2023-02-13T08:21:57.653Z,102960.11
2023-02-13T08:23:07.183Z,102968.38
2023-02-13T08:24:09.404Z,102968.80
2023-02-13T08:25:10.962Z,102972.55
2023-02-13T08:26:12.482Z,102974.96
2023-02-13T08:27:15.334Z,102976.79
2023-02-13T08:28:17.160Z,102978.33
2023-02-13T08:29:18.902Z,102971.49
2023-02-13T08:30:20.483Z,102967.64
2023-02-13T08:31:22.087Z,102967.78
2023-02-13T08:32:24.896Z,102969.80
2023-02-13T08:33:26.663Z,102965.76
2023-02-13T08:34:28.131Z,102966.71
2023-02-13T08:35:31.068Z,102959.93
2023-02-13T08:36:32.892Z,102967.42
2023-02-13T08:37:34.504Z,102968.65
2023-02-13T08:38:36.054Z,102964.91
2023-02-13T08:39:37.593Z,102965.14
2023-02-13T08:40:40.145Z,102964.31
2023-02-13T08:41:42.830Z,102967.54
2023-02-13T08:42:44.806Z,102968.80
2023-02-13T08:43:46.444Z,102967.98
2023-02-13T08:44:48.269Z,102966.41
2023-02-13T08:45:49.904Z,102957.26
2023-02-13T08:46:51.785Z,102955.28
2023-02-13T08:47:57.433Z,102952.14
2023-02-13T08:48:59.252Z,102952.77
2023-02-13T08:50:00.795Z,102953.10
2023-02-13T08:51:10.015Z,102950.69
2023-02-13T08:52:11.609Z,102952.89
2023-02-13T08:53:13.390Z,102949.71
2023-02-13T08:54:15.680Z,102949.95
2023-02-13T08:55:17.264Z,102954.57
2023-02-13T08:56:18.798Z,102949.20
2023-02-13T08:57:20.377Z,102954.77
2023-02-13T08:58:23.161Z,102954.86
2023-02-13T08:59:24.885Z,102954.92
2023-02-13T09:00:27.049Z,102954.21
2023-02-13T09:01:28.665Z,102956.72
2023-02-13T09:02:30.303Z,102949.97
2023-02-13T09:03:32.138Z,102945.67
2023-02-13T09:04:33.982Z,102950.48
2023-02-13T09:05:35.543Z,102951.63
2023-02-13T09:06:37.209Z,102954.33
2023-02-13T09:07:38.716Z,102955.46
2023-02-13T09:08:40.734Z,102955.18
2023-02-13T09:09:42.386Z,102948.73
2023-02-13T09:10:43.954Z,102956.78
2023-02-13T09:11:45.515Z,102957.45
2023-02-13T09:12:53.796Z,102961.77
2023-02-13T09:13:55.459Z,102960.70
2023-02-13T09:14:57.118Z,102960.84
2023-02-13T09:16:08.058Z,102962.62
2023-02-13T09:17:10.232Z,102958.27
2023-02-13T09:18:11.705Z,102961.10
2023-02-13T09:19:13.406Z,102961.86
2023-02-13T09:20:15.630Z,102961.59
2023-02-13T09:21:19.577Z,102966.14
2023-02-13T09:22:21.063Z,102969.15
2023-02-13T09:23:22.722Z,102966.70
2023-02-13T09:24:25.566Z,102969.85
2023-02-13T09:25:27.195Z,102977.42
2023-02-13T09:26:28.753Z,102976.70
2023-02-13T09:27:30.314Z,102978.92
2023-02-13T09:28:33.064Z,102978.66
2023-02-13T09:29:34.895Z,102973.32
2023-02-13T09:30:36.512Z,102974.11
2023-02-13T09:31:38.133Z,102969.08
2023-02-13T09:32:41.369Z,102970.97
2023-02-13T09:33:44.549Z,102973.52
2023-02-13T09:34:46.465Z,102968.55
2023-02-13T09:35:48.145Z,102972.06
2023-02-13T09:36:53.766Z,102972.04
2023-02-13T09:37:55.435Z,102969.30
2023-02-13T09:38:57.345Z,102971.59
2023-02-13T09:39:59.157Z,102969.60
2023-02-13T09:41:06.735Z,102972.09
2023-02-13T09:42:20.654Z,102967.48
2023-02-13T09:43:37.230Z,102964.20
2023-02-13T09:44:44.377Z,102969.48
2023-02-13T09:45:48.376Z,102970.11
2023-02-13T09:46:50.195Z,102972.57
2023-02-13T09:47:51.924Z,102966.98
2023-02-13T09:48:56.600Z,102967.49
2023-02-13T09:50:03.794Z,102974.43
2023-02-13T09:51:05.798Z,102973.36
2023-02-13T09:52:09.356Z,102973.92
2023-02-13T09:53:20.463Z,102975.48
2023-02-13T09:54:22.037Z,102969.06
2023-02-13T09:55:36.696Z,102966.62
2023-02-13T09:56:59.850Z,102964.63
2023-02-13T09:58:15.742Z,102957.49
2023-02-13T09:59:46.620Z,102961.84
2023-02-13T10:00:53.442Z,102953.10
2023-02-13T10:02:00.286Z,102953.46
2023-02-13T10:03:17.433Z,102954.05
2023-02-13T10:04:28.638Z,102948.94
2023-02-13T10:05:58.700Z,102944.37
2023-02-13T10:07:19.287Z,102948.27
2023-02-13T10:08:28.727Z,102944.73
2023-02-13T10:09:39.887Z,102939.30
2023-02-13T10:10:57.200Z,102948.36
2023-02-13T10:12:12.660Z,102949.13
2023-02-13T10:14:02.472Z,102946.44
2023-02-13T10:15:33.710Z,102941.71
2023-02-13T10:16:41.261Z,102944.11
2023-02-13T10:17:47.739Z,102949.61
2023-02-13T10:19:03.229Z,102947.08
2023-02-13T10:20:16.374Z,102942.50
2023-02-13T10:21:27.292Z,102951.28
2023-02-13T10:22:31.945Z,102947.71
2023-02-13T10:23:49.588Z,102951.38
2023-02-13T10:25:05.414Z,102954.79
2023-02-13T10:26:14.148Z,102949.25
2023-02-13T10:27:23.814Z,102946.20
2023-02-13T10:28:36.243Z,102941.32
2023-02-13T10:30:11.845Z,102938.88
2023-02-13T10:31:22.226Z,102936.88
2023-02-13T10:33:10.442Z,102934.38
2023-02-13T10:34:15.728Z,102942.87
2023-02-13T10:35:29.010Z,102930.76
2023-02-13T10:36:35.226Z,102929.48
2023-02-13T10:37:38.470Z,102932.34
2023-02-13T10:38:56.463Z,102927.19
2023-02-13T10:39:57.945Z,102928.04
2023-02-13T10:41:22.442Z,102928.60
2023-02-13T10:42:41.666Z,102932.63
2023-02-13T10:44:17.351Z,102934.94
2023-02-13T10:45:43.090Z,102943.04
2023-02-13T10:46:53.595Z,102953.67
2023-02-13T10:48:02.477Z,102947.26
2023-02-13T10:49:23.037Z,102955.12
2023-02-13T10:50:35.956Z,102949.19
2023-02-13T10:51:50.910Z,102950.23
2023-02-13T10:53:16.402Z,102954.95
2023-02-13T10:54:46.289Z,102953.98
2023-02-13T10:55:53.614Z,102949.88
2023-02-13T10:57:20.182Z,102958.44
2023-02-13T10:58:38.718Z,102953.80
2023-02-13T10:59:59.203Z,102964.21
2023-02-13T11:01:10.066Z,102965.52
2023-02-13T11:02:20.450Z,102952.13
2023-02-13T11:03:27.265Z,102955.61
2023-02-13T11:04:29.571Z,102955.02
2023-02-13T11:05:37.143Z,102953.33
2023-02-13T11:06:50.500Z,102949.83
2023-02-13T11:07:51.978Z,102939.94
2023-02-13T11:08:53.608Z,102938.91
2023-02-13T11:09:59.744Z,102939.28
2023-02-13T11:11:01.309Z,102934.48
2023-02-13T11:12:24.052Z,102940.52
2023-02-13T11:13:28.651Z,102927.92
2023-02-13T11:14:30.134Z,102929.23
2023-02-13T11:15:32.431Z,102922.82
2023-02-13T11:16:42.513Z,102917.82
2023-02-13T11:17:46.089Z,102918.02
2023-02-13T11:18:49.725Z,102915.87
2023-02-13T11:19:55.880Z,102912.06
2023-02-13T11:21:01.873Z,102906.90
2023-02-13T11:22:14.541Z,102920.58
2023-02-13T11:23:31.824Z,102911.59
2023-02-13T11:24:34.985Z,102918.52
2023-02-13T11:25:37.843Z,102921.87
2023-02-13T11:26:39.710Z,102919.75
2023-02-13T11:27:41.854Z,102918.02
2023-02-13T11:28:55.199Z,102913.10
2023-02-13T11:29:59.426Z,102904.45
2023-02-13T11:31:17.932Z,102906.73
2023-02-13T11:32:26.384Z,102898.54
2023-02-13T11:33:28.021Z,102901.02
2023-02-13T11:34:32.289Z,102903.52
2023-02-13T11:35:36.001Z,102907.01
2023-02-13T11:36:37.746Z,102909.13
2023-02-13T11:37:39.895Z,102911.13
2023-02-13T11:38:41.689Z,102910.73
2023-02-13T11:39:46.224Z,102907.60
2023-02-13T11:40:52.292Z,102902.46
2023-02-13T11:41:53.999Z,102899.41
2023-02-13T11:42:55.547Z,102903.66
2023-02-13T11:44:01.802Z,102908.92
2023-02-13T11:45:19.400Z,102903.34
2023-02-13T11:46:24.616Z,102907.65
2023-02-13T11:47:35.358Z,102910.27
2023-02-13T11:48:36.848Z,102894.81
2023-02-13T11:49:45.617Z,102897.30
2023-02-13T11:50:52.353Z,102891.69
2023-02-13T11:52:13.941Z,102884.92
2023-02-13T11:53:22.408Z,102891.73
2023-02-13T11:54:29.829Z,102880.69
2023-02-13T11:55:34.411Z,102881.16
2023-02-13T11:57:08.813Z,102881.95
2023-02-13T11:58:10.631Z,102886.90
2023-02-13T11:59:13.309Z,102876.88
2023-02-13T12:00:37.152Z,102873.30
2023-02-13T12:01:39.123Z,102868.58
2023-02-13T12:02:47.713Z,102865.52
2023-02-13T12:04:11.337Z,102866.69
2023-02-13T12:05:20.544Z,102874.35
2023-02-13T12:06:22.066Z,102868.90
2023-02-13T12:07:29.078Z,102870.09
2023-02-13T12:08:33.508Z,102868.59
2023-02-13T12:09:38.151Z,102872.46
2023-02-13T12:10:40.184Z,102878.45
2023-02-13T12:11:49.451Z,102884.70
2023-02-13T12:12:58.744Z,102881.72
2023-02-13T12:14:00.291Z,102887.13
2023-02-13T12:15:13.688Z,102873.05
2023-02-13T12:16:18.189Z,102880.15
2023-02-13T12:17:31.837Z,102878.88
2023-02-13T12:18:38.193Z,102878.64
2023-02-13T12:19:43.219Z,102871.36
2023-02-13T12:21:00.841Z,102880.73
2023-02-13T12:22:28.031Z,102873.30
2023-02-13T12:23:51.495Z,102873.35
2023-02-13T12:25:11.721Z,102879.88
2023-02-13T12:26:30.055Z,102868.80
2023-02-13T12:27:59.883Z,102875.16
2023-02-13T12:29:01.343Z,102874.74
2023-02-13T12:30:26.431Z,102873.17
2023-02-13T12:31:51.915Z,102872.10
2023-02-13T12:33:06.959Z,102879.86
2023-02-13T12:34:33.168Z,102892.31
2023-02-13T12:36:01.612Z,102891.94
2023-02-13T12:37:35.664Z,102885.77
2023-02-13T12:38:57.433Z,102893.29
2023-02-13T12:40:20.472Z,102881.36
2023-02-13T12:41:36.508Z,102883.02
2023-02-13T12:43:15.792Z,102876.98
2023-02-13T12:44:19.993Z,102877.00
2023-02-13T12:45:40.249Z,102873.31
2023-02-13T12:47:00.658Z,102875.73
2023-02-13T12:48:29.979Z,102879.31
2023-02-13T12:49:53.191Z,102883.33
2023-02-13T12:51:13.176Z,102883.27
2023-02-13T12:52:26.891Z,102876.82
2023-02-13T12:53:53.338Z,102878.62
2023-02-13T12:55:52.229Z,102880.28